メインページ
METAR-TAF:

METAR-TAF

空港 :

静岡空港

静岡, 日本

緯度: 34-47-46N, 経度: 138-11-22E, 海抜: 132m

現時点の気象観測

当レポートは18分前の08:00(UTC)に作成
北東の風 7kt、北/北西からの間で変化する
気温 16°C
湿度 82%
気圧 1008 hPa
視程10km以上
高度500ftの雲はほとんどない
高度1500ftの雲は散在している
高度2500ftの千切れ雲あり

METAR: RJNS 240800Z 04007KT 330V090 9999 FEW005 SCT015 BKN025 16/13 Q1008

時間: 17:18 (08:18 UTC)

予報

当レポートは3時間12分前の05:06(UTC)に作成
予報は24日の 06時(UTC)から 25日の 12時(UTC)まで有効
北東の風 10kt
視程10km以上
高度800ftの雲はほとんどない
高度1500ftの千切れ雲あり
24日の 13時(UTC)から 24日の 15時(UTC)まで徐々に
西の風 8kt
25日の 00時(UTC)から 25日の 09時(UTC)まで一時的に
西の風 20kt、最大30ktの突風を伴う

TAF: RJNS 240506Z 2406/2512 04010KT 9999 FEW008 BKN015 BECMG 2413/2415 28008KT TEMPO 2500/2509 27020G30KT

4,000以上の空港の気象観測と天気予報(METAR報とTAF報)

利用可能な観測所は地図上に黄色い丸と赤い丸で示す。

丸の上にカーソルを重ねると観測所名を参照できる。

次にクリックすると気象観測と天気予報を参照できる。

マップの切り替え:黒色「×」印の緑ボタンをクリックして拡大、「-」印の緑ボタンをクリックして縮小、緑色の三角印をクリックして隣りの地図に切り替え


METAR-TAF: